Aérodrome :
LOGIN :

S'inscrire | Disclaimer

   EN    FR    IT 

 










Légende :    VFR   VFR Marginal   IFR   IFR Intensif   IFR Très Intensif
Visi : 
Plafond : 
>= 8 km
>= 3000ft
5 à 8 km
1000 à 3000 ft
1500m à 5 km
500 à 1000 ft
800 à 1500m
200 à 500 ft
< 800m
< 200 ft
Symboles :   Orages  Brouillard  Fortes neiges  Fortes précipitations  Vent > 20 kt
SIGMETs :   Divers  Orages  Givrage  Turbulence  Onde Orograph.  Cendres Volcan.






- Altitude de l'aérodrome : 656 ft


UUBC - Grabtsevo

DERNIER METAR :
  • 231900Z 23004MPS 9999 BKN040 00/M00 Q0996 R13/290150 NOSIG RMK QFE729/0972

METARs EXPIRÉS :
  • 231830Z 22004MPS 180V240 9999 BKN040 01/M00 Q0996 R13/290150 NOSIG RMK QFE729/0972
  • 231800Z 22004MPS 9999 BKN034 01/M00 Q0996 R13/290150 NOSIG RMK QFE729/0972
  • 231730Z 23004MPS CAVOK 01/M00 Q0996 R13/290150 NOSIG RMK QFE729/0973
  • 231700Z 22003MPS CAVOK 01/M01 Q0997 R13/290150 NOSIG RMK QFE730/0973
  • 231630Z 23003MPS 9999 SCT035 01/M01 Q0997 R13/290150 NOSIG RMK QFE730/0973

TAF TAF UUBC
Valide du 23 à 18h jusqu'au 24 à 03h UTC


231644Z 2318/2403 22003G08MPS 9000 OVC011
TEMPO 2318/2403 25003G08MPS 3500 -SHSN BR BKN010CB



MET'MAP, la Météo Aéronautique d'un coup d'oeil ! - Copyright ORBIFLY Décembre 2007 - Disclaimer

ORBIFLY MET'MAP TEAM :

Programmation & Développement : Alexandra Zaïnal
Sur une idée originale de : Baudouin d'Aumeries
Assistance à la programmation : Marc-Olivier Méhu
Soutien technique & logistique : Manuel Goepfert

Contact : metmap@orbifly.com




SOURCES & CREDITS :

   NOAA